^^
Station Historical Data
Daily Summary for August 11, 2018 Units:  English    Metric   Both
« Previous Day
Next Day »
Daily Weekly Monthly Yearly Custom
  High: Low: Average:
Temperature: TemperatureF °F 67.5 °F 73.4 °F
Dew Point: DewpointF °F 66.2 °F 69.5 °F
Humidity: Humidity% 64% 88%
Wind Speed: WindSpeedMPHmph 0mph 0.2mph
Wind Gust: WindSpeedGustMPHmph - -
Wind- - WSW
Pressure: PressureIn in 29.94 in -
Precipitation: 0 in    
Historical Graphs
 
 
Tabular Data for August 11, 2018
Time Temperature Dew Point Pressure Wind Wind Speed Wind Gust Humidity Rainfall Rate (Hourly)
TemperatureF °F DewpointF °F PressureIn in Calm     Humidity% HourlyPrecipIn in
00:04 70.7 °F 69.3 °F 29.98 in Calm     95% 0.01 in
00:09 70.9 °F 69.4 °F 29.98 in Calm     95% 0.01 in
00:14 70.9 °F 69.4 °F 29.98 in Calm     95% 0.01 in
00:19 70.7 °F 69.3 °F 29.98 in Calm     95% 0.01 in
00:24 70.7 °F 69.3 °F 29.98 in Calm     95% 0.01 in
00:29 70.5 °F 69.1 °F 29.98 in Calm     95% 0.01 in
00:34 70.5 °F 69.1 °F 29.98 in Calm     95% 0.01 in
00:39 70.3 °F 68.9 °F 29.98 in Calm     95% 0.01 in
00:44 70.3 °F 68.9 °F 29.98 in Calm     95% 0.01 in
00:49 70.3 °F 68.9 °F 29.98 in Calm     95% 0.01 in
00:54 70.2 °F 68.7 °F 29.98 in Calm     95% 0.01 in
00:59 70.2 °F 68.7 °F 29.98 in Calm     95% 0 in
01:04 70 °F 68.5 °F 29.98 in Calm     95% 0 in
01:09 70 °F 68.5 °F 29.98 in Calm     95% 0 in
01:14 69.6 °F 68.2 °F 29.98 in Calm     95% 0 in
01:19 69.6 °F 68.2 °F 29.98 in Calm     95% 0 in
01:24 69.4 °F 68 °F 29.98 in Calm     95% 0 in
01:29 69.4 °F 68 °F 29.97 in Calm     95% 0 in
01:34 69.3 °F 67.8 °F 29.97 in Calm     95% 0 in
01:39 69.3 °F 67.8 °F 29.97 in Calm     95% 0 in
01:44 69.3 °F 67.8 °F 29.97 in Calm     95% 0 in
01:49 69.1 °F 67.6 °F 29.97 in Calm     95% 0 in
01:54 69.1 °F 67.6 °F 29.97 in Calm     95% 0 in
01:59 68.9 °F 67.5 °F 29.96 in Calm     95% 0 in
02:04 68.9 °F 67.5 °F 29.96 in Calm     95% 0 in
02:09 68.7 °F 67.3 °F 29.96 in Calm     95% 0 in
02:14 68.7 °F 67.3 °F 29.96 in Calm     95% 0 in
02:19 68.5 °F 67.1 °F 29.96 in Calm     95% 0 in
02:24 68.5 °F 67.1 °F 29.96 in Calm     95% 0 in
02:29 68.5 °F 67.1 °F 29.96 in Calm     95% 0 in
02:34 68.5 °F 67.1 °F 29.96 in Calm     95% 0 in
02:39 68.5 °F 67.1 °F 29.96 in Calm     95% 0 in
02:44 68.5 °F 67.1 °F 29.96 in Calm     95% 0 in
02:49 68.5 °F 67.1 °F 29.96 in Calm     95% 0 in
02:54 68.5 °F 67.1 °F 29.95 in Calm     95% 0 in
02:59 68.5 °F 67.1 °F 29.95 in Calm     95% 0 in
03:04 68.5 °F 67.1 °F 29.95 in Calm     95% 0 in
03:09 68.5 °F 67.3 °F 29.95 in Calm     96% 0 in
03:14 68.4 °F 67.1 °F 29.95 in Calm     96% 0 in
03:19 68.4 °F 67.1 °F 29.95 in Calm     96% 0 in
03:24 68.4 °F 67.1 °F 29.94 in Calm     96% 0 in
03:29 68.2 °F 66.9 °F 29.94 in Calm     96% 0 in
03:34 68.2 °F 66.7 °F 29.94 in Calm     95% 0 in
03:39 68.2 °F 66.9 °F 29.94 in Calm     96% 0 in
03:44 68.2 °F 66.9 °F 29.94 in Calm     96% 0 in
03:49 68.2 °F 66.9 °F 29.94 in Calm     96% 0 in
03:54 68.2 °F 66.9 °F 29.94 in Calm     96% 0 in
03:59 68.2 °F 66.9 °F 29.94 in Calm     96% 0 in
04:04 68.2 °F 66.9 °F 29.94 in Calm     96% 0 in
04:09 68.2 °F 66.9 °F 29.94 in Calm     96% 0 in
04:14 68.2 °F 66.9 °F 29.94 in Calm     96% 0 in
04:19 68 °F 66.7 °F 29.95 in Calm     96% 0 in
04:24 68 °F 66.7 °F 29.95 in Calm     96% 0 in
04:29 67.8 °F 66.6 °F 29.95 in Calm     96% 0 in
04:34 67.8 °F 66.6 °F 29.95 in Calm     96% 0 in
04:39 67.8 °F 66.6 °F 29.95 in Calm     96% 0 in
04:44 67.6 °F 66.4 °F 29.95 in Calm     96% 0 in
04:49 67.6 °F 66.4 °F 29.95 in Calm     96% 0 in
04:54 67.6 °F 66.4 °F 29.95 in Calm     96% 0 in
04:59 67.6 °F 66.4 °F 29.95 in Calm     96% 0 in
05:04 67.6 °F 66.4 °F 29.95 in Calm     96% 0 in
05:09 67.6 °F 66.4 °F 29.95 in Calm     96% 0 in
05:14 67.6 °F 66.4 °F 29.94 in Calm     96% 0 in
05:19 67.6 °F 66.4 °F 29.94 in Calm     96% 0 in
05:24 67.6 °F 66.4 °F 29.94 in Calm     96% 0 in
05:29 67.6 °F 66.4 °F 29.94 in Calm     96% 0 in
05:34 67.6 °F 66.4 °F 29.94 in Calm     96% 0 in
05:39 67.5 °F 66.2 °F 29.94 in Calm     96% 0 in
05:44 67.5 °F 66.2 °F 29.95 in Calm     96% 0 in
05:49 67.6 °F 66.4 °F 29.95 in Calm     96% 0 in
05:54 67.5 °F 66.2 °F 29.95 in Calm     96% 0 in
05:59 67.5 °F 66.2 °F 29.95 in Calm     96% 0 in
06:04 67.5 °F 66.2 °F 29.95 in Calm     96% 0 in
06:09 67.5 °F 66.2 °F 29.95 in Calm     96% 0 in
06:14 67.5 °F 66.2 °F 29.96 in Calm     96% 0 in
06:19 67.6 °F 66.4 °F 29.95 in Calm     96% 0 in
06:24 67.6 °F 66.4 °F 29.96 in Calm     96% 0 in
06:29 67.6 °F 66.4 °F 29.96 in Calm     96% 0 in
06:34 67.6 °F 66.4 °F 29.96 in Calm     96% 0 in
06:39 67.6 °F 66.4 °F 29.96 in Calm     96% 0 in
06:44 67.6 °F 66.4 °F 29.96 in Calm     96% 0 in
06:49 67.6 °F 66.4 °F 29.96 in Calm     96% 0 in
06:54 67.6 °F 66.4 °F 29.97 in Calm     96% 0 in
06:59 67.6 °F 66.4 °F 29.97 in Calm     96% 0 in
07:04 67.6 °F 66.4 °F 29.97 in Calm     96% 0 in
07:09 67.6 °F 66.4 °F 29.97 in Calm     96% 0 in
07:14 67.8 °F 66.6 °F 29.96 in Calm     96% 0 in
07:19 67.8 °F 66.6 °F 29.97 in Calm     96% 0 in
07:24 67.8 °F 66.6 °F 29.97 in Calm     96% 0 in
07:29 67.8 °F 66.6 °F 29.98 in Calm     96% 0 in
07:34 68 °F 66.7 °F 29.98 in Calm     96% 0 in
07:39 68 °F 66.7 °F 29.98 in Calm     96% 0 in
07:44 68 °F 66.7 °F 29.98 in Calm     96% 0 in
07:49 68.2 °F 66.9 °F 29.98 in Calm     96% 0 in
07:54 68.2 °F 66.9 °F 29.98 in Calm     96% 0 in
07:59 68.2 °F 66.9 °F 29.98 in Calm     96% 0 in
08:04 68.2 °F 66.9 °F 29.98 in Calm     96% 0 in
08:09 68.4 °F 67.1 °F 29.98 in Calm     96% 0 in
08:14 68.4 °F 67.1 °F 29.98 in Calm     96% 0 in
08:19 68.5 °F 67.3 °F 29.99 in Calm     96% 0 in
08:24 68.5 °F 67.3 °F 29.99 in Calm     96% 0 in
08:29 68.7 °F 67.5 °F 29.99 in Calm     96% 0 in
08:34 68.7 °F 67.5 °F 29.99 in Calm     96% 0 in
08:39 68.7 °F 67.5 °F 30.00 in Calm     96% 0 in
08:44 68.9 °F 67.6 °F 30.00 in Calm     96% 0 in
08:49 69.1 °F 67.8 °F 30.00 in Calm     96% 0 in
08:54 69.1 °F 67.8 °F 30.00 in Calm   1 mph 96% 0 in
08:59 69.3 °F 68 °F 30.00 in Calm     96% 0 in
09:04 69.3 °F 68 °F 30.00 in Calm     96% 0 in
09:09 69.4 °F 68.2 °F 30.00 in Calm     96% 0 in
09:14 69.4 °F 68.2 °F 30.00 in Calm     96% 0 in
09:19 69.6 °F 68.4 °F 30.00 in Calm     96% 0 in
09:24 69.8 °F 68.5 °F 30.00 in Calm     96% 0 in
09:29 70 °F 68.7 °F 30.00 in Calm     96% 0 in
09:34 70.2 °F 68.9 °F 30.00 in Calm     96% 0 in
09:39 70.3 °F 69.1 °F 29.99 in Calm     96% 0 in
09:44 70.3 °F 69.1 °F 30.00 in Calm     96% 0 in
09:49 70.5 °F 69.3 °F 29.99 in Calm     96% 0 in
09:54 70.5 °F 69.3 °F 29.99 in Calm     96% 0 in
09:59 70.9 °F 69.6 °F 30.00 in Calm   1 mph 96% 0 in
10:04 70.9 °F 69.6 °F 29.99 in Calm     96% 0 in
10:09 71.1 °F 69.8 °F 30.00 in Calm   1 mph 96% 0 in
10:14 71.2 °F 70 °F 30.00 in North 0.9 mph 1 mph 96% 0 in
10:19 71.4 °F 70.2 °F 30.00 in WNW 0.9 mph 5 mph 96% 0 in
10:24 71.4 °F 70.2 °F 30.00 in Calm   2 mph 96% 0 in
10:29 71.4 °F 70 °F 30.01 in Calm   3 mph 95% 0 in
10:34 71.6 °F 70.2 °F 30.01 in Calm     95% 0 in
10:39 71.6 °F 70.2 °F 30.01 in Calm   1 mph 95% 0 in
10:44 71.8 °F 70.3 °F 30.01 in Calm   2 mph 95% 0 in
10:49 72 °F 70.2 °F 30.01 in Calm   2 mph 94% 0 in
10:54 72.1 °F 70.3 °F 30.01 in NNW 0.9 mph 3 mph 94% 0 in
10:59 72.3 °F 70.5 °F 30.01 in Calm   1 mph 94% 0 in
11:04 72.7 °F 70.5 °F 30.01 in Calm   2 mph 93% 0 in
11:09 73 °F 70.5 °F 30.01 in Calm   2 mph 92% 0 in
11:14 73.4 °F 70.9 °F 30.01 in Calm     92% 0 in
11:19 73.8 °F 71.2 °F 30.01 in Calm   2 mph 92% 0 in
11:24 73.9 °F 70.9 °F 30.01 in Calm   3 mph 90% 0 in
11:29 74.1 °F 71.1 °F 30.01 in Calm   1 mph 90% 0 in
11:34 74.5 °F 71.1 °F 30.01 in WNW 2 mph 5 mph 89% 0 in
11:39 74.8 °F 71.1 °F 30.01 in Calm   4 mph 88% 0 in
11:44 75 °F 70.9 °F 30.01 in Calm   3 mph 87% 0 in
11:49 75.6 °F 71.8 °F 30.01 in Calm     88% 0 in
11:54 75.6 °F 70.7 °F 30.01 in Calm   4 mph 85% 0 in
11:59 75.7 °F 70.9 °F 30.02 in Calm   2 mph 85% 0 in
12:04 75.7 °F 70.9 °F 30.02 in Calm   1 mph 85% 0 in
12:09 75.7 °F 71.2 °F 30.02 in Calm   4 mph 86% 0 in
12:14 75.9 °F 71.4 °F 30.02 in Calm     86% 0 in
12:19 76.3 °F 72.1 °F 30.02 in Calm     87% 0 in
12:24 76.3 °F 71.8 °F 30.02 in Calm   1 mph 86% 0 in
12:29 76.3 °F 71.4 °F 30.02 in Calm   3 mph 85% 0 in
12:34 76.5 °F 72 °F 30.02 in Calm   1 mph 86% 0 in
12:39 76.8 °F 71.6 °F 30.02 in Calm   5 mph 84% 0 in
12:44 77.2 °F 72 °F 30.02 in WNW 2.9 mph 3 mph 84% 0 in
12:49 77.4 °F 71.4 °F 30.01 in Calm   1 mph 82% 0 in
12:54 77.7 °F 71.8 °F 30.01 in Calm   1 mph 82% 0 in
12:59 78.1 °F 71.4 °F 30.01 in WSW 0.9 mph 6 mph 80% 0 in
13:04 78.6 °F 72 °F 30.01 in Calm   2 mph 80% 0 in
13:09 79 °F 72 °F 30.01 in Calm   3 mph 79% 0 in
13:14 79.2 °F 72.1 °F 30.01 in Calm     79% 0 in
13:19 79.3 °F 71.4 °F 30.01 in NW 0.9 mph 6 mph 77% 0 in
13:24 79.3 °F 72 °F 30.01 in Calm     78% 0 in
13:29 79.5 °F 72.1 °F 30.01 in Calm   5 mph 78% 0 in
13:34 80.1 °F 72.1 °F 30.01 in NW 2.9 mph 4 mph 77% 0 in
13:39 80.4 °F 71.8 °F 30.01 in Calm   4 mph 75% 0 in
13:44 81 °F 72 °F 30.01 in Calm   3 mph 74% 0 in
13:49 81.1 °F 72.1 °F 30.01 in Calm   2 mph 74% 0 in
13:54 81.3 °F 71.4 °F 30.00 in Calm   4 mph 72% 0 in
13:59 81.5 °F 71.6 °F 30.00 in Calm   4 mph 72% 0 in
14:04 81.5 °F 72 °F 30.00 in Calm   3 mph 73% 0 in
14:09 81.7 °F 71.4 °F 30.00 in North 2.9 mph 4 mph 71% 0 in
14:14 81.7 °F 72.1 °F 29.99 in East 2 mph 2 mph 73% 0 in
14:19 81.9 °F 72.3 °F 29.99 in NW 0.9 mph 4 mph 73% 0 in
14:24 82 °F 71.2 °F 29.99 in NNW 4 mph 4 mph 70% 0 in
14:29 82 °F 71.2 °F 29.99 in North 0.9 mph 1 mph 70% 0 in
14:34 82.2 °F 72 °F 29.99 in Calm   2 mph 71% 0 in
14:39 82.4 °F 72 °F 29.99 in Calm   4 mph 71% 0 in
14:44 82.4 °F 72 °F 29.99 in Calm   6 mph 71% 0 in
14:49 82.2 °F 72.3 °F 29.99 in NW 2.9 mph 4 mph 72% 0 in
14:54 82 °F 71.2 °F 29.98 in Calm   2 mph 70% 0 in
14:59 82 °F 71.2 °F 29.98 in NW 2 mph 5 mph 70% 0 in
15:04 82.2 °F 70.5 °F 29.98 in NNW 0.9 mph 5 mph 68% 0 in
15:09 82.6 °F 70.9 °F 29.98 in Calm   5 mph 68% 0 in
15:14 82.6 °F 71.4 °F 29.98 in Calm   5 mph 69% 0 in
15:19 82.6 °F 72.1 °F 29.98 in NW 2 mph 3 mph 71% 0 in
15:24 82.8 °F 72.3 °F 29.98 in NW 2 mph 5 mph 71% 0 in
15:29 82.6 °F 71.4 °F 29.98 in Calm   2 mph 69% 0 in
15:34 82.8 °F 72.3 °F 29.98 in NNW 0.9 mph 3 mph 71% 0 in
15:39 82.8 °F 71.1 °F 29.98 in NW 2 mph 3 mph 68% 0 in
15:44 82.9 °F 72.1 °F 29.97 in Calm     70% 0 in
15:49 82.9 °F 71.2 °F 29.97 in North 2 mph 3 mph 68% 0 in
15:54 83.1 °F 71.4 °F 29.97 in Calm   3 mph 68% 0 in
15:59 83.5 °F 73.9 °F 29.96 in Calm   3 mph 73% 0 in
16:04 83.5 °F 71.8 °F 29.96 in Calm   4 mph 68% 0 in
16:09 83.5 °F 71.8 °F 29.96 in Calm   1 mph 68% 0 in
16:14 83.5 °F 70.9 °F 29.96 in Calm   3 mph 66% 0 in
16:19 83.7 °F 72.3 °F 29.96 in Calm   6 mph 69% 0 in
16:24 83.8 °F 71.2 °F 29.96 in WNW 2 mph 6 mph 66% 0 in
16:29 83.7 °F 72 °F 29.95 in NNE 2.9 mph 3 mph 68% 0 in
16:34 83.5 °F 71.4 °F 29.95 in Calm   1 mph 67% 0 in
16:39 83.5 °F 70.5 °F 29.95 in Calm   1 mph 65% 0 in
16:44 83.7 °F 70.7 °F 29.95 in NW 0.9 mph 7 mph 65% 0 in
16:49 83.7 °F 70.2 °F 29.95 in Calm   6 mph 64% 0 in
16:54 83.7 °F 70.7 °F 29.95 in Calm   1 mph 65% 0 in
16:59 83.7 °F 72.3 °F 29.95 in NNW 2 mph 2 mph 69% 0 in
17:04 83.5 °F 71.8 °F 29.95 in Calm   2 mph 68% 0 in
17:09 83.1 °F 71.1 °F 29.95 in Calm   4 mph 67% 0 in
17:14 82.6 °F 70.5 °F 29.94 in Calm   3 mph 67% 0 in
17:19 82.8 °F 70.7 °F 29.95 in NW 0.9 mph 3 mph 67% 0 in
17:24 82.8 °F 73.9 °F 29.95 in Calm   1 mph 75% 0 in
17:29 82.2 °F 71.4 °F 29.95 in Calm   1 mph 70% 0 in
17:34 82.2 °F 70.5 °F 29.95 in Calm   3 mph 68% 0 in
17:39 82.6 °F 70.9 °F 29.95 in Calm     68% 0 in
17:44 82.8 °F 71.6 °F 29.95 in Calm   4 mph 69% 0 in
17:49 82.8 °F 72 °F 29.95 in Calm   4 mph 70% 0 in
17:54 82.8 °F 72 °F 29.95 in Calm   1 mph 70% 0 in
17:59 82.6 °F 70.9 °F 29.95 in Calm   2 mph 68% 0 in
18:04 82.6 °F 71.8 °F 29.95 in Calm   1 mph 70% 0 in
18:09 82 °F 71.2 °F 29.95 in Calm     70% 0 in
18:14 81.7 °F 74.1 °F 29.96 in Calm     78% 0 in
18:19 81 °F 73.8 °F 29.96 in Calm     79% 0 in
18:24 80.1 °F 74.1 °F 29.96 in Calm     82% 0 in
18:29 79.3 °F 73.8 °F 29.96 in Calm     83% 0 in
18:34 78.8 °F 73.6 °F 29.96 in Calm     84% 0 in
18:39 78.4 °F 73.9 °F 29.96 in Calm     86% 0 in
18:44 78.1 °F 73.6 °F 29.96 in Calm     86% 0 in
18:49 77.7 °F 73.6 °F 29.96 in Calm     87% 0 in
18:54 77.5 °F 73.4 °F 29.96 in Calm     87% 0 in
18:59 77.5 °F 73.8 °F 29.96 in Calm     88% 0 in
19:04 77.5 °F 73.8 °F 29.96 in Calm     88% 0 in
19:09 77.4 °F 72.9 °F 29.96 in Calm     86% 0 in
19:14 77.5 °F 73.8 °F 29.96 in Calm     88% 0 in
19:19 77.5 °F 73.8 °F 29.96 in Calm     88% 0 in
19:24 77.4 °F 73.9 °F 29.96 in Calm     89% 0 in
19:29 77.2 °F 73.8 °F 29.96 in Calm     89% 0 in
19:34 76.8 °F 73.4 °F 29.96 in Calm     89% 0 in
19:39 76.6 °F 73.4 °F 29.96 in Calm     90% 0 in
19:44 76.6 °F 73.4 °F 29.97 in Calm     90% 0 in
19:49 76.3 °F 73 °F 29.97 in Calm     90% 0 in
19:54 76.1 °F 72.9 °F 29.97 in Calm     90% 0 in
19:59 75.9 °F 72.9 °F 29.97 in Calm     90% 0 in
20:04 75.9 °F 73 °F 29.97 in Calm     91% 0 in
20:09 75.7 °F 72.9 °F 29.97 in Calm     91% 0 in
20:14 75.6 °F 72.7 °F 29.97 in Calm     91% 0 in
20:19 75.4 °F 72.5 °F 29.98 in Calm     91% 0 in
20:24 75.2 °F 72.3 °F 29.98 in Calm     91% 0 in
20:29 75 °F 72.5 °F 29.98 in Calm     92% 0 in
20:34 74.8 °F 72.3 °F 29.98 in Calm     92% 0 in
20:39 74.7 °F 72.1 °F 29.98 in Calm     92% 0 in
20:44 74.5 °F 72 °F 29.98 in Calm     92% 0 in
20:49 74.3 °F 71.8 °F 29.98 in Calm     92% 0 in
20:54 74.1 °F 71.6 °F 29.98 in Calm     92% 0 in
20:59 73.9 °F 71.4 °F 29.98 in Calm     92% 0 in
21:04 73.9 °F 71.4 °F 29.98 in Calm     92% 0 in
21:09 73.8 °F 71.6 °F 29.98 in Calm     93% 0 in
21:14 73.8 °F 71.6 °F 29.98 in Calm     93% 0 in
21:19 73.6 °F 71.4 °F 29.99 in Calm     93% 0 in
21:24 73.2 °F 71.1 °F 29.99 in Calm     93% 0 in
21:29 73 °F 70.9 °F 29.99 in Calm     93% 0 in
21:34 73 °F 70.9 °F 29.99 in Calm     93% 0 in
21:39 72.9 °F 70.7 °F 29.99 in Calm     93% 0 in
21:44 72.7 °F 70.5 °F 30.00 in Calm     93% 0 in
21:49 72.7 °F 70.5 °F 30.00 in Calm     93% 0 in
21:54 72.5 °F 70.7 °F 29.99 in Calm     94% 0 in
21:59 72.5 °F 70.7 °F 30.00 in Calm     94% 0 in
22:04 72.3 °F 70.5 °F 30.00 in Calm     94% 0 in
22:09 72.1 °F 70.3 °F 30.01 in Calm     94% 0 in
22:14 72.1 °F 70.3 °F 30.01 in Calm     94% 0 in
22:19 72 °F 70.2 °F 30.01 in Calm     94% 0 in
22:24 71.8 °F 70 °F 30.01 in Calm     94% 0 in
22:29 71.8 °F 70 °F 30.01 in Calm     94% 0 in
22:34 71.6 °F 69.8 °F 30.01 in Calm     94% 0 in
22:39 71.4 °F 69.6 °F 30.01 in Calm     94% 0 in
22:44 71.4 °F 69.6 °F 30.01 in Calm     94% 0 in
22:49 71.2 °F 69.4 °F 30.01 in Calm     94% 0 in
22:54 71.2 °F 69.4 °F 30.01 in Calm     94% 0 in
22:59 71.1 °F 69.3 °F 30.01 in Calm     94% 0 in
23:04 70.9 °F 69.1 °F 30.01 in Calm     94% 0 in
23:09 70.9 °F 69.1 °F 30.02 in Calm     94% 0 in
23:14 70.7 °F 68.9 °F 30.02 in Calm     94% 0 in
23:19 70.5 °F 68.7 °F 30.02 in Calm     94% 0 in
23:24 70.3 °F 68.5 °F 30.02 in Calm     94% 0 in
23:29 70.3 °F 68.5 °F 30.02 in Calm     94% 0 in
23:34 70.2 °F 68.4 °F 30.02 in Calm     94% 0 in
23:39 70.2 °F 68.4 °F 30.02 in Calm     94% 0 in
23:44 70.2 °F 68.4 °F 30.02 in Calm     94% 0 in
23:49 70 °F 68.2 °F 30.02 in Calm     94% 0 in
23:54 69.8 °F 68 °F 30.03 in Calm     94% 0 in
23:59 69.8 °F 68 °F 30.03 in Calm     94% 0 in
Ellijay Weather
Compliments of Weather Underground - 2.5 mb